Time;durP1;ratioP1;P1;durP2;ratioP2;P2;SDS_P1;SDS_P2;PMS_P1;PMS_P2;Temp;Humidity;BMP_temperature;BMP_pressure;BME280_temperature;BME280_humidity;BME280_pressure;Samples;Min_cycle;Max_cycle;Signal;HPM_P1;HPM_P2
2020/12/04 00:02:20;;;;;;;33.37;27.10;;;3.40;99.90;;;;;;4906667;29;20935;-86
2020/12/04 00:05:32;;;;;;;31.73;26.67;;;3.50;99.90;;;;;;4955305;28;20489;-88
2020/12/04 00:08:00;;;;;;;29.10;24.70;;;3.40;99.90;;;;;;4820493;29;20475;-85
2020/12/04 00:10:26;;;;;;;28.20;24.03;;;3.60;99.90;;;;;;4902138;28;20456;-86
2020/12/04 00:12:52;;;;;;;27.03;23.90;;;3.60;99.90;;;;;;4955129;28;20449;-88
2020/12/04 00:15:19;;;;;;;25.70;23.07;;;3.60;99.90;;;;;;4955433;28;20453;-86
2020/12/04 00:17:45;;;;;;;27.80;23.40;;;3.40;99.90;;;;;;4955657;28;20817;-87
2020/12/04 00:20:11;;;;;;;27.50;24.60;;;3.50;99.90;;;;;;4955449;28;20582;-90
2020/12/04 00:22:38;;;;;;;30.50;25.90;;;3.50;99.90;;;;;;4955611;28;20445;-87
2020/12/04 06:10:15;;;;;;;28.20;21.37;;;4.10;99.90;;;;;;6055477;23;20473;-75
2020/12/04 06:12:50;;;;;;;26.97;21.30;;;4.10;99.90;;;;;;4941772;28;20472;-77
2020/12/04 06:15:24;;;;;;;22.80;20.30;;;4.10;99.90;;;;;;4933161;29;20458;-77
2020/12/04 06:17:51;;;;;;;21.17;19.27;;;4.10;99.90;;;;;;4933260;29;20446;-77
2020/12/04 06:20:18;;;;;;;21.97;19.87;;;4.00;99.90;;;;;;4932922;29;20492;-77
2020/12/04 06:23:07;;;;;;;24.43;21.93;;;4.00;99.90;;;;;;4933039;29;20488;-77
2020/12/04 06:26:00;;;;;;;22.97;19.40;;;4.00;99.90;;;;;;4933048;29;20437;-77
2020/12/04 06:28:29;;;;;;;20.17;18.07;;;3.90;99.90;;;;;;4932947;29;20446;-77
2020/12/04 06:31:05;;;;;;;21.60;19.40;;;3.80;99.90;;;;;;4933215;29;20437;-77
2020/12/04 06:33:36;;;;;;;20.87;18.77;;;3.90;99.90;;;;;;4934480;29;20840;-77
2020/12/04 06:36:04;;;;;;;20.87;18.97;;;3.80;99.90;;;;;;4936664;29;20441;-77
2020/12/04 06:38:38;;;;;;;21.53;19.23;;;3.90;99.90;;;;;;4936720;29;20441;-77
2020/12/04 06:41:26;;;;;;;25.57;19.97;;;3.90;99.90;;;;;;4937013;29;20495;-77
2020/12/04 06:43:55;;;;;;;24.63;21.43;;;4.00;99.90;;;;;;4936656;29;20940;-77
2020/12/04 06:46:43;;;;;;;21.57;19.37;;;4.00;99.90;;;;;;4936910;29;20442;-77
2020/12/04 06:49:34;;;;;;;20.60;18.37;;;4.00;99.90;;;;;;4933754;29;20485;-76
2020/12/04 06:52:05;;;;;;;19.70;17.90;;;4.00;99.90;;;;;;4936368;29;20452;-78
2020/12/04 06:54:34;;;;;;;19.97;17.97;;;4.00;99.90;;;;;;4936477;29;20452;-77
2020/12/04 06:57:01;;;;;;;22.43;18.37;;;3.90;99.90;;;;;;4936532;29;20964;-76
2020/12/04 06:59:29;;;;;;;21.80;19.77;;;3.90;99.90;;;;;;4936450;29;20489;-77
2020/12/04 07:02:17;;;;;;;20.93;18.70;;;3.90;99.90;;;;;;4936791;29;20452;-77
2020/12/04 07:04:46;;;;;;;22.30;20.10;;;3.90;99.90;;;;;;4932898;29;20464;-77
2020/12/04 07:07:14;;;;;;;25.77;21.87;;;3.90;99.90;;;;;;4936476;29;20457;-77
2020/12/04 07:09:42;;;;;;;22.97;19.50;;;3.90;99.90;;;;;;4936145;29;20442;-78
2020/12/04 07:12:15;;;;;;;21.60;19.47;;;3.90;99.90;;;;;;4936065;29;20479;-76
2020/12/04 07:14:42;;;;;;;24.43;20.70;;;3.80;99.90;;;;;;4936103;29;20433;-76
2020/12/04 07:17:09;;;;;;;22.83;20.80;;;3.90;99.90;;;;;;4936247;29;20947;-77
2020/12/04 07:19:35;;;;;;;20.93;18.90;;;4.10;99.90;;;;;;4935920;29;20485;-78
2020/12/04 07:22:01;;;;;;;21.30;19.20;;;4.00;99.90;;;;;;4935828;29;20445;-76
2020/12/04 07:24:28;;;;;;;23.23;19.57;;;4.00;99.90;;;;;;4935596;29;20449;-76
2020/12/04 07:26:57;;;;;;;20.17;18.10;;;4.00;99.90;;;;;;4935998;29;20457;-75
2020/12/04 07:29:25;;;;;;;22.97;20.67;;;4.00;99.90;;;;;;4936030;29;20500;-77
2020/12/04 07:31:53;;;;;;;23.53;21.03;;;4.10;99.90;;;;;;4935822;29;20454;-73
2020/12/04 07:34:21;;;;;;;28.20;21.33;;;4.00;99.90;;;;;;4935613;29;20453;-75
2020/12/04 07:36:49;;;;;;;25.97;17.77;;;3.90;99.90;;;;;;4935522;29;20943;-75
2020/12/04 07:39:23;;;;;;;21.00;18.93;;;3.90;99.90;;;;;;4935212;29;20798;-75
2020/12/04 07:41:49;;;;;;;21.23;19.03;;;3.80;99.90;;;;;;4935345;29;20445;-75
2020/12/04 07:44:16;;;;;;;23.37;20.73;;;3.80;99.90;;;;;;4934724;29;20454;-75
2020/12/04 07:46:43;;;;;;;26.53;22.70;;;3.90;99.90;;;;;;4934472;29;20492;-75
2020/12/04 07:49:11;;;;;;;23.13;20.83;;;3.90;99.90;;;;;;4934664;29;20460;-76
2020/12/04 07:51:39;;;;;;;28.57;23.03;;;4.00;99.90;;;;;;4934889;29;20453;-76
2020/12/04 07:54:18;;;;;;;24.27;21.67;;;4.00;99.90;;;;;;4937528;29;20978;-74
2020/12/04 07:56:49;;;;;;;25.73;22.93;;;4.10;99.90;;;;;;4946063;29;20729;-75
2020/12/04 07:59:20;;;;;;;24.63;22.17;;;4.10;99.90;;;;;;4938709;29;20445;-75
2020/12/04 08:01:47;;;;;;;24.97;20.30;;;4.10;99.90;;;;;;4934620;29;20441;-76
2020/12/04 08:04:18;;;;;;;22.17;19.87;;;4.20;99.90;;;;;;4934595;29;20911;-76
2020/12/04 08:06:45;;;;;;;24.30;21.80;;;4.30;99.90;;;;;;4934430;29;20766;-76
2020/12/04 08:09:13;;;;;;;25.03;22.20;;;4.30;99.90;;;;;;4934533;29;20449;-75
2020/12/04 08:11:48;;;;;;;22.07;20.03;;;4.30;99.90;;;;;;4934368;29;20482;-76
2020/12/04 08:14:21;;;;;;;23.50;21.00;;;4.50;99.90;;;;;;4934549;29;20449;-76
2020/12/04 08:16:48;;;;;;;22.53;20.20;;;4.60;99.90;;;;;;4934494;29;20457;-76
2020/12/04 08:19:15;;;;;;;22.20;20.20;;;4.60;99.90;;;;;;4934366;29;20460;-76
2020/12/04 08:22:01;;;;;;;25.23;19.93;;;4.70;99.90;;;;;;4934377;29;20477;-76
2020/12/04 08:24:30;;;;;;;19.80;17.90;;;4.70;99.90;;;;;;4934286;29;20463;-75
2020/12/04 08:27:00;;;;;;;26.13;19.80;;;4.70;99.90;;;;;;4934287;29;20442;-75
2020/12/04 08:29:27;;;;;;;23.00;20.70;;;4.80;99.90;;;;;;4934188;29;20450;-75
2020/12/04 08:32:04;;;;;;;23.10;20.63;;;4.80;99.90;;;;;;4934639;29;20452;-75
2020/12/04 08:34:30;;;;;;;24.80;21.77;;;4.90;99.90;;;;;;4934330;29;20453;-75
2020/12/04 08:37:01;;;;;;;24.40;21.60;;;4.90;99.90;;;;;;4933990;29;20457;-75
2020/12/04 08:39:35;;;;;;;26.70;23.83;;;5.10;99.90;;;;;;4933291;29;20949;-75
2020/12/04 08:42:15;;;;;;;25.87;21.47;;;5.00;99.90;;;;;;4933806;29;20480;-76
2020/12/04 08:44:42;;;;;;;23.67;21.27;;;5.00;99.90;;;;;;4933393;29;20457;-75
2020/12/04 08:47:09;;;;;;;24.50;21.50;;;5.10;99.90;;;;;;4932627;29;20449;-75
2020/12/04 08:49:35;;;;;;;23.20;20.80;;;5.30;99.90;;;;;;4934139;29;20437;-75
2020/12/04 08:52:03;;;;;;;26.73;22.53;;;5.30;99.90;;;;;;4933815;29;20448;-75
2020/12/04 08:54:29;;;;;;;24.60;22.47;;;5.20;99.90;;;;;;4933723;29;20477;-75
2020/12/04 08:56:56;;;;;;;23.77;21.13;;;5.20;99.90;;;;;;4933374;29;20452;-75
2020/12/04 08:59:23;;;;;;;22.67;20.57;;;5.30;99.90;;;;;;4933922;29;20446;-75
2020/12/04 09:01:51;;;;;;;31.13;22.70;;;5.50;99.90;;;;;;4933916;29;20449;-75
2020/12/04 09:04:18;;;;;;;21.93;19.73;;;5.50;99.90;;;;;;4933712;29;20816;-75
2020/12/04 09:06:45;;;;;;;21.67;19.53;;;5.50;99.90;;;;;;4933620;29;20469;-75
2020/12/04 09:09:11;;;;;;;23.13;20.63;;;5.50;99.90;;;;;;4933700;29;20804;-75
2020/12/04 09:11:38;;;;;;;24.10;21.80;;;5.40;99.90;;;;;;4933638;29;20477;-75
2020/12/04 09:14:04;;;;;;;26.93;20.83;;;5.30;99.90;;;;;;4932136;29;20784;-75
2020/12/04 09:16:30;;;;;;;23.33;20.33;;;5.40;99.90;;;;;;4933645;29;20457;-75
2020/12/04 09:18:56;;;;;;;28.53;21.20;;;5.40;99.90;;;;;;4933624;29;20820;-75
2020/12/04 09:21:23;;;;;;;23.63;21.17;;;5.50;99.90;;;;;;4933922;29;20517;-75
2020/12/04 09:23:49;;;;;;;24.63;21.33;;;5.50;99.90;;;;;;4933802;29;20449;-75
2020/12/04 09:26:15;;;;;;;21.17;19.27;;;5.60;99.90;;;;;;4933751;29;20450;-75
2020/12/04 09:28:42;;;;;;;21.77;19.53;;;5.50;99.90;;;;;;4933628;29;20812;-75
2020/12/04 09:31:08;;;;;;;20.70;18.70;;;5.50;99.90;;;;;;4933884;29;20442;-76
2020/12/04 09:33:35;;;;;;;23.27;20.10;;;5.60;99.90;;;;;;4933595;29;20442;-75
2020/12/04 09:36:01;;;;;;;25.20;19.20;;;5.60;99.90;;;;;;4933233;29;20466;-75
2020/12/04 09:38:30;;;;;;;22.63;19.27;;;5.80;99.90;;;;;;4932968;29;20505;-76
2020/12/04 09:40:56;;;;;;;26.90;22.20;;;5.90;99.90;;;;;;4932958;29;20489;-76
2020/12/04 09:43:23;;;;;;;24.20;21.40;;;5.80;99.90;;;;;;4933614;29;20442;-76
2020/12/04 09:45:49;;;;;;;21.57;19.37;;;5.90;99.90;;;;;;4933192;29;20453;-76
2020/12/04 09:48:15;;;;;;;23.33;20.60;;;5.80;99.90;;;;;;4933250;29;20457;-76
2020/12/04 09:50:41;;;;;;;24.80;21.00;;;5.70;99.90;;;;;;4933190;29;20449;-76
2020/12/04 09:53:08;;;;;;;21.57;19.33;;;5.70;99.90;;;;;;4933375;29;20450;-75
2020/12/04 09:55:35;;;;;;;22.83;20.50;;;5.90;99.90;;;;;;4933249;29;20456;-76
2020/12/04 09:58:01;;;;;;;20.93;18.83;;;6.10;99.90;;;;;;4933464;29;20831;-75
2020/12/04 10:00:27;;;;;;;20.57;18.60;;;6.30;99.90;;;;;;4932887;29;20492;-76
2020/12/04 10:02:53;;;;;;;21.17;19.07;;;6.40;99.90;;;;;;4933602;29;20480;-75
2020/12/04 10:05:19;;;;;;;22.77;20.30;;;6.50;99.90;;;;;;4931563;29;20462;-76
2020/12/04 10:07:45;;;;;;;20.60;18.80;;;6.80;99.90;;;;;;4931889;29;20469;-76
2020/12/04 10:10:12;;;;;;;21.10;19.10;;;6.80;99.90;;;;;;4932644;29;20453;-76
2020/12/04 10:12:39;;;;;;;21.00;19.20;;;6.50;99.90;;;;;;4933342;29;20453;-75
2020/12/04 10:15:05;;;;;;;23.03;20.73;;;6.40;99.90;;;;;;4933081;29;20445;-76
2020/12/04 10:17:31;;;;;;;22.13;18.63;;;6.20;99.90;;;;;;4932923;29;20457;-76
2020/12/04 10:19:57;;;;;;;23.77;21.47;;;6.10;99.90;;;;;;4932825;29;20481;-76
2020/12/04 10:22:23;;;;;;;22.33;20.13;;;6.00;99.90;;;;;;4932935;29;20442;-76
2020/12/04 10:24:50;;;;;;;21.87;19.53;;;5.90;99.90;;;;;;4932808;29;20450;-76
2020/12/04 10:27:16;;;;;;;21.17;19.10;;;6.00;99.90;;;;;;4932796;29;20456;-75
2020/12/04 10:29:43;;;;;;;22.03;19.83;;;6.10;99.90;;;;;;4932610;29;20449;-76
2020/12/04 10:32:09;;;;;;;24.73;21.27;;;6.30;99.90;;;;;;4932819;29;20457;-76
2020/12/04 10:34:35;;;;;;;23.23;20.83;;;6.50;99.90;;;;;;4932951;29;20797;-76
2020/12/04 10:37:01;;;;;;;25.83;21.03;;;6.50;99.90;;;;;;4932953;29;20449;-75
2020/12/04 10:39:28;;;;;;;19.97;18.07;;;6.70;99.90;;;;;;4932205;29;20453;-76
2020/12/04 10:41:54;;;;;;;23.13;20.70;;;6.80;99.90;;;;;;4933340;29;20450;-76
2020/12/04 10:44:20;;;;;;;22.40;18.60;;;6.90;99.90;;;;;;4933341;29;20795;-76
2020/12/04 10:46:47;;;;;;;23.83;21.63;;;7.10;99.90;;;;;;4933008;29;20460;-76
2020/12/04 10:49:13;;;;;;;22.63;20.40;;;7.20;99.90;;;;;;4932989;29;20951;-75
2020/12/04 10:51:39;;;;;;;22.50;20.10;;;7.40;99.90;;;;;;4944237;29;20452;-76
2020/12/04 10:54:06;;;;;;;23.00;20.87;;;7.40;99.90;;;;;;4943284;29;20445;-75
2020/12/04 10:56:33;;;;;;;25.40;20.93;;;7.40;99.90;;;;;;4932748;29;20540;-76
2020/12/04 10:58:59;;;;;;;22.13;20.03;;;7.30;99.90;;;;;;4932927;29;20441;-75
2020/12/04 11:01:30;;;;;;;27.27;21.80;;;7.20;99.90;;;;;;4932682;29;20508;-75
2020/12/04 11:06:47;;;;;;;27.93;19.50;;;7.20;99.90;;;;;;4932685;29;20500;-75
2020/12/04 11:09:13;;;;;;;22.20;20.00;;;7.10;99.90;;;;;;4932889;29;20457;-75
2020/12/04 11:11:39;;;;;;;20.90;18.73;;;7.10;99.90;;;;;;4932832;29;20461;-75
2020/12/04 11:14:06;;;;;;;21.07;19.17;;;7.00;99.90;;;;;;4933223;29;20803;-75
2020/12/04 11:16:32;;;;;;;22.17;19.97;;;7.00;99.90;;;;;;4933105;29;20450;-75
2020/12/04 11:18:59;;;;;;;23.00;20.80;;;7.10;99.90;;;;;;4933643;29;20446;-75
2020/12/04 11:21:29;;;;;;;22.50;20.30;;;7.10;99.90;;;;;;4936202;29;20547;-76
2020/12/04 11:23:55;;;;;;;25.00;20.60;;;7.00;99.90;;;;;;4936134;29;20817;-75
2020/12/04 11:26:21;;;;;;;25.17;22.23;;;7.20;99.90;;;;;;4936397;29;20453;-75
2020/12/04 11:28:48;;;;;;;24.13;21.63;;;7.00;99.90;;;;;;4936245;29;20457;-75
2020/12/04 11:31:14;;;;;;;23.47;21.23;;;7.20;99.90;;;;;;4936113;29;20442;-75
2020/12/04 11:33:40;;;;;;;22.47;20.17;;;7.20;99.90;;;;;;4936094;29;20445;-75
2020/12/04 11:36:07;;;;;;;22.50;20.13;;;7.30;99.90;;;;;;4936019;29;20457;-75
2020/12/04 11:38:33;;;;;;;23.87;20.43;;;7.10;99.90;;;;;;4935898;29;20450;-75
2020/12/04 11:40:59;;;;;;;21.10;18.90;;;7.20;99.90;;;;;;4935843;29;20580;-75
2020/12/04 11:43:26;;;;;;;20.97;18.77;;;7.30;99.90;;;;;;4935914;29;20460;-74
2020/12/04 11:45:52;;;;;;;21.77;19.77;;;7.40;99.90;;;;;;4935979;29;20442;-75
2020/12/04 11:48:18;;;;;;;23.60;19.13;;;7.50;99.90;;;;;;4935791;29;20441;-75
2020/12/04 11:50:44;;;;;;;20.13;18.23;;;7.70;99.90;;;;;;4935784;29;20448;-75
2020/12/04 11:53:11;;;;;;;21.10;19.07;;;7.70;99.90;;;;;;4935677;29;20461;-74
2020/12/04 11:55:37;;;;;;;19.73;17.97;;;7.80;99.90;;;;;;4935869;29;20445;-75
2020/12/04 11:58:04;;;;;;;19.63;17.87;;;7.80;99.90;;;;;;4935739;29;20940;-75
2020/12/04 12:00:30;;;;;;;20.90;19.00;;;7.90;99.90;;;;;;4935502;29;20493;-75
2020/12/04 12:02:56;;;;;;;23.70;17.90;;;8.10;99.90;;;;;;4935595;29;20454;-75
2020/12/04 12:05:22;;;;;;;18.23;16.73;;;8.10;99.90;;;;;;4935563;29;20488;-75
2020/12/04 12:07:49;;;;;;;20.47;16.80;;;8.00;99.90;;;;;;4935394;29;20457;-75
2020/12/04 12:10:16;;;;;;;19.27;17.40;;;8.00;99.90;;;;;;4935430;29;20442;-75
2020/12/04 12:12:42;;;;;;;18.03;16.43;;;7.90;99.90;;;;;;4935374;29;20465;-75
2020/12/04 12:15:09;;;;;;;19.50;17.60;;;7.90;99.90;;;;;;4935650;29;20450;-76
2020/12/04 12:17:35;;;;;;;19.73;18.03;;;7.80;99.90;;;;;;4935583;29;20521;-75
2020/12/04 12:20:01;;;;;;;19.90;17.80;;;7.80;99.90;;;;;;4935131;29;20489;-75
2020/12/04 12:22:27;;;;;;;19.23;17.50;;;7.80;99.90;;;;;;4931381;29;20471;-75
2020/12/04 12:24:53;;;;;;;20.47;18.40;;;7.80;99.90;;;;;;4926804;29;20453;-75
2020/12/04 12:27:20;;;;;;;21.23;19.20;;;7.70;99.90;;;;;;4926351;29;20450;-74
2020/12/04 12:29:47;;;;;;;20.17;18.13;;;7.60;99.90;;;;;;4916272;29;20466;-75
2020/12/04 12:32:13;;;;;;;19.97;18.20;;;7.60;99.90;;;;;;4929275;29;20481;-76
2020/12/04 12:37:24;;;;;;;19.40;17.60;;;7.50;99.90;;;;;;4935183;29;20872;-76
2020/12/04 12:39:50;;;;;;;20.80;18.80;;;7.50;99.90;;;;;;4928129;29;20451;-75
2020/12/04 12:42:18;;;;;;;18.70;17.00;;;7.60;99.90;;;;;;4914691;29;20438;-75
2020/12/04 12:44:45;;;;;;;19.77;18.07;;;7.70;99.90;;;;;;4921102;29;20474;-75
2020/12/04 12:47:12;;;;;;;19.90;18.30;;;7.70;99.90;;;;;;4930709;29;20460;-75
2020/12/04 12:49:40;;;;;;;20.80;18.80;;;7.70;99.90;;;;;;4916200;29;20461;-77
2020/12/04 12:52:06;;;;;;;21.73;19.83;;;7.70;99.90;;;;;;4925225;29;20453;-76
2020/12/04 12:54:32;;;;;;;21.17;18.87;;;7.70;99.90;;;;;;4934900;29;20449;-75
2020/12/04 12:56:59;;;;;;;20.33;18.43;;;7.80;99.90;;;;;;4934849;29;20457;-75
2020/12/04 12:59:26;;;;;;;20.77;18.77;;;7.70;99.90;;;;;;4934808;29;20446;-75
2020/12/04 13:01:53;;;;;;;18.80;17.00;;;7.70;99.90;;;;;;4915710;29;20493;-75
2020/12/04 13:04:20;;;;;;;23.10;17.67;;;7.60;99.90;;;;;;4915631;29;20835;-75
2020/12/04 13:06:47;;;;;;;19.33;17.63;;;7.50;99.90;;;;;;4915259;29;20470;-76
2020/12/04 13:09:13;;;;;;;19.00;17.23;;;7.50;99.90;;;;;;4915399;29;20454;-75
2020/12/04 13:11:40;;;;;;;21.03;18.80;;;7.50;99.90;;;;;;4915403;29;20478;-76
2020/12/04 13:14:07;;;;;;;17.87;16.37;;;7.50;99.90;;;;;;4915621;29;20538;-75
2020/12/04 13:16:34;;;;;;;18.90;17.30;;;7.50;99.90;;;;;;4915461;29;20450;-76
2020/12/04 13:19:02;;;;;;;20.33;18.53;;;7.40;99.90;;;;;;4934369;29;20481;-75
2020/12/04 13:24:09;;;;;;;20.10;18.30;;;7.40;99.90;;;;;;4934152;29;20492;-76
2020/12/04 13:26:38;;;;;;;20.70;18.57;;;7.40;99.90;;;;;;4934407;29;20940;-76
2020/12/04 13:29:05;;;;;;;20.70;18.70;;;7.40;99.90;;;;;;4934326;29;20441;-76
2020/12/04 13:31:31;;;;;;;21.53;18.47;;;7.40;99.90;;;;;;4934143;29;20456;-76
2020/12/04 13:33:57;;;;;;;20.40;18.47;;;7.40;99.90;;;;;;4934410;29;20445;-76
2020/12/04 13:36:24;;;;;;;20.10;18.30;;;7.40;99.90;;;;;;4934267;29;20460;-75
2020/12/04 13:38:51;;;;;;;20.20;18.53;;;7.40;99.90;;;;;;4934125;29;20453;-76
2020/12/04 13:41:17;;;;;;;20.67;18.77;;;7.30;99.90;;;;;;4933962;29;20999;-76
2020/12/04 13:43:43;;;;;;;19.07;17.37;;;7.20;99.90;;;;;;4926384;29;20864;-75
2020/12/04 13:46:09;;;;;;;20.27;18.33;;;7.20;99.90;;;;;;4919287;29;20462;-76
2020/12/04 13:48:36;;;;;;;20.30;18.30;;;7.20;99.90;;;;;;4928952;29;20451;-75
2020/12/04 13:51:02;;;;;;;20.30;18.60;;;7.30;99.90;;;;;;4920641;29;20450;-75
2020/12/04 13:53:29;;;;;;;19.27;17.50;;;7.20;99.90;;;;;;4914850;29;20446;-76
2020/12/04 13:55:55;;;;;;;17.87;16.27;;;7.20;99.90;;;;;;4915022;29;20451;-75
2020/12/04 13:58:21;;;;;;;20.43;18.43;;;7.00;99.90;;;;;;4915041;29;20828;-76
2020/12/04 14:00:48;;;;;;;19.33;17.73;;;7.00;99.90;;;;;;4914408;29;20486;-75
2020/12/04 14:03:14;;;;;;;18.87;17.27;;;7.00;99.90;;;;;;4914178;29;20457;-76
2020/12/04 14:05:40;;;;;;;20.70;17.67;;;7.00;99.90;;;;;;4914485;29;20832;-75
2020/12/04 14:08:06;;;;;;;19.73;18.13;;;7.00;99.90;;;;;;4914871;29;20884;-78
2020/12/04 14:10:33;;;;;;;19.87;17.73;;;7.00;99.90;;;;;;4914614;29;20485;-77
2020/12/04 14:12:59;;;;;;;19.73;18.03;;;6.90;99.90;;;;;;4915011;29;20458;-76
2020/12/04 14:15:25;;;;;;;19.33;17.53;;;6.80;99.90;;;;;;4914673;29;20451;-77
2020/12/04 14:17:52;;;;;;;21.03;19.33;;;6.80;99.90;;;;;;4922355;29;20446;-77
2020/12/04 14:20:18;;;;;;;20.37;18.37;;;6.80;99.90;;;;;;4933869;29;20481;-77
2020/12/04 14:22:44;;;;;;;23.10;18.90;;;6.90;99.90;;;;;;4933594;29;20445;-77
2020/12/04 14:25:10;;;;;;;18.77;17.23;;;6.80;99.90;;;;;;4933566;29;20449;-77
2020/12/04 14:27:37;;;;;;;21.13;18.50;;;6.80;99.90;;;;;;4934039;29;20449;-78
2020/12/04 14:30:04;;;;;;;19.30;17.63;;;6.80;99.90;;;;;;4933618;29;20441;-78
2020/12/04 14:32:30;;;;;;;18.67;16.93;;;6.70;99.90;;;;;;4933692;29;20453;-78
2020/12/04 14:34:57;;;;;;;21.33;19.00;;;6.60;99.90;;;;;;4933575;29;20468;-78
2020/12/04 14:37:23;;;;;;;19.67;17.90;;;6.60;99.90;;;;;;4933505;29;20951;-78
2020/12/04 14:39:49;;;;;;;20.77;18.70;;;6.60;99.90;;;;;;4933413;29;20452;-78
2020/12/04 14:42:15;;;;;;;20.00;18.13;;;6.50;99.90;;;;;;4933544;29;21123;-78
2020/12/04 14:44:42;;;;;;;21.77;19.93;;;6.60;99.90;;;;;;4925611;29;20451;-78
2020/12/04 14:47:08;;;;;;;19.70;17.67;;;6.50;99.90;;;;;;4914678;29;20453;-78
2020/12/04 14:49:35;;;;;;;20.80;18.93;;;6.40;99.90;;;;;;4914598;29;20820;-78
2020/12/04 14:52:02;;;;;;;20.37;18.57;;;6.40;99.90;;;;;;4914439;29;20450;-79
2020/12/04 14:54:28;;;;;;;21.00;18.87;;;6.40;99.90;;;;;;4915548;29;20989;-78
2020/12/04 14:56:54;;;;;;;21.63;19.33;;;6.40;99.90;;;;;;4918039;29;20457;-78
2020/12/04 14:59:20;;;;;;;18.80;17.07;;;6.40;99.90;;;;;;4918147;29;20450;-78
2020/12/04 15:01:48;;;;;;;26.73;19.30;;;6.50;99.90;;;;;;4917711;29;20863;-78
2020/12/04 15:04:14;;;;;;;21.00;18.90;;;6.50;99.90;;;;;;4917893;29;20513;-78
2020/12/04 15:06:40;;;;;;;19.63;17.97;;;6.40;99.90;;;;;;4917863;29;20473;-78
2020/12/04 15:09:07;;;;;;;18.10;16.40;;;6.30;99.90;;;;;;4930615;29;20465;-78
2020/12/04 15:11:33;;;;;;;19.40;17.60;;;6.30;99.90;;;;;;4935203;29;20476;-77
2020/12/04 15:14:00;;;;;;;20.87;18.67;;;6.20;99.90;;;;;;4936286;29;20793;-77
2020/12/04 15:16:26;;;;;;;21.97;19.97;;;6.20;99.90;;;;;;4935990;29;20445;-77
2020/12/04 15:18:53;;;;;;;20.73;19.03;;;6.20;99.90;;;;;;4936348;29;20450;-77
2020/12/04 15:21:19;;;;;;;21.23;19.30;;;6.30;99.90;;;;;;4935801;29;20482;-78
2020/12/04 15:23:45;;;;;;;20.93;19.23;;;6.30;99.90;;;;;;4935851;29;20961;-78
2020/12/04 15:26:11;;;;;;;21.30;19.30;;;6.40;99.90;;;;;;4936119;29;20464;-78
2020/12/04 15:28:38;;;;;;;20.87;19.17;;;6.30;99.90;;;;;;4936058;29;20452;-77
2020/12/04 15:31:04;;;;;;;21.63;19.20;;;6.30;99.90;;;;;;4936101;29;20514;-78
2020/12/04 15:33:30;;;;;;;19.90;18.20;;;6.30;99.90;;;;;;4935723;29;20441;-78
2020/12/04 15:35:57;;;;;;;20.33;18.23;;;6.30;99.90;;;;;;4935986;29;20452;-78
2020/12/04 15:38:24;;;;;;;19.87;17.97;;;6.20;99.90;;;;;;4935664;29;20829;-78
2020/12/04 15:40:51;;;;;;;23.87;20.40;;;6.30;99.90;;;;;;4935721;29;20489;-78
2020/12/04 15:43:18;;;;;;;26.20;19.87;;;6.20;99.90;;;;;;4935673;29;20445;-78
2020/12/04 15:45:44;;;;;;;20.90;18.73;;;6.00;99.90;;;;;;4935445;29;20450;-78
2020/12/04 15:48:10;;;;;;;20.93;19.17;;;6.10;99.90;;;;;;4935687;29;20441;-78
2020/12/04 15:50:36;;;;;;;19.70;17.80;;;5.90;99.90;;;;;;4935604;29;20449;-78
2020/12/04 15:53:03;;;;;;;21.43;19.33;;;5.80;99.90;;;;;;4935478;29;20450;-78
2020/12/04 15:55:30;;;;;;;19.70;17.87;;;5.80;99.90;;;;;;4935341;29;20813;-78
2020/12/04 15:57:56;;;;;;;22.07;20.07;;;5.90;99.90;;;;;;4935650;29;20930;-78
2020/12/04 16:00:22;;;;;;;21.67;19.70;;;5.70;99.90;;;;;;4934386;29;20448;-77
2020/12/04 16:02:48;;;;;;;21.77;19.67;;;5.80;99.90;;;;;;4935811;29;20460;-77
2020/12/04 16:05:15;;;;;;;22.67;19.30;;;5.80;99.90;;;;;;4935448;29;20835;-77
2020/12/04 16:07:41;;;;;;;22.87;20.40;;;5.90;99.90;;;;;;4935440;29;20450;-78
2020/12/04 16:10:08;;;;;;;23.60;20.87;;;5.80;99.90;;;;;;4936002;29;20449;-77
2020/12/04 16:12:35;;;;;;;21.40;19.50;;;5.80;99.90;;;;;;4935675;29;20448;-77
2020/12/04 16:15:01;;;;;;;21.60;19.70;;;5.80;99.90;;;;;;4935468;29;20729;-78
2020/12/04 16:17:27;;;;;;;20.13;17.63;;;5.90;99.90;;;;;;4935130;29;20445;-78
2020/12/04 16:19:53;;;;;;;21.90;19.80;;;5.90;99.90;;;;;;4935447;29;20797;-77
2020/12/04 16:22:20;;;;;;;21.50;19.40;;;6.00;99.90;;;;;;4935290;29;20514;-79
2020/12/04 16:24:46;;;;;;;20.67;18.60;;;6.00;99.90;;;;;;4935397;29;20446;-78
2020/12/04 16:27:13;;;;;;;21.40;19.50;;;5.90;99.90;;;;;;4935292;29;20453;-78
2020/12/04 16:29:40;;;;;;;20.87;19.03;;;5.80;99.90;;;;;;4935392;29;20450;-79
2020/12/04 16:32:06;;;;;;;20.73;18.93;;;5.80;99.90;;;;;;4935502;29;20452;-79
2020/12/04 16:34:32;;;;;;;22.73;20.60;;;5.60;99.90;;;;;;4935043;29;20445;-79
2020/12/04 16:37:01;;;;;;;21.47;19.57;;;5.60;99.90;;;;;;4935096;29;20453;-79
2020/12/04 16:39:27;;;;;;;19.33;17.67;;;5.40;99.90;;;;;;4935039;29;20473;-79
2020/12/04 16:41:53;;;;;;;20.17;18.47;;;5.40;99.90;;;;;;4935166;29;20493;-79
2020/12/04 16:44:21;;;;;;;18.53;17.03;;;5.40;99.90;;;;;;4936306;29;20959;-77
2020/12/04 16:46:50;;;;;;;20.93;18.80;;;5.50;99.90;;;;;;4947494;29;20457;-78
2020/12/04 16:49:16;;;;;;;21.20;19.33;;;5.50;99.90;;;;;;4942148;29;20449;-78
2020/12/04 16:51:43;;;;;;;21.80;19.70;;;5.60;99.90;;;;;;4934780;29;20445;-78
2020/12/04 16:54:10;;;;;;;20.33;17.90;;;5.60;99.90;;;;;;4934663;29;20445;-78
2020/12/04 16:56:37;;;;;;;21.13;19.20;;;5.60;99.90;;;;;;4934680;29;20450;-77
2020/12/04 16:59:04;;;;;;;24.00;19.30;;;5.60;99.90;;;;;;4934662;29;20449;-78
2020/12/04 17:01:31;;;;;;;20.57;18.60;;;5.60;99.90;;;;;;4934378;29;20830;-77
2020/12/04 17:03:57;;;;;;;21.07;19.07;;;5.60;99.90;;;;;;4934450;29;20445;-78
2020/12/04 17:06:24;;;;;;;20.63;18.63;;;5.60;99.90;;;;;;4934544;29;20461;-78
2020/12/04 17:08:50;;;;;;;20.50;18.47;;;5.60;99.90;;;;;;4934534;29;20442;-78
2020/12/04 17:11:17;;;;;;;20.50;18.43;;;5.60;99.90;;;;;;4934347;29;20469;-77
2020/12/04 17:13:43;;;;;;;22.30;19.00;;;5.60;99.90;;;;;;4934160;29;20472;-78
2020/12/04 17:16:10;;;;;;;21.70;19.70;;;5.40;99.90;;;;;;4934493;29;20952;-78
2020/12/04 17:18:38;;;;;;;21.80;19.90;;;5.40;99.90;;;;;;4934200;29;20450;-78
2020/12/04 17:21:05;;;;;;;20.97;18.83;;;5.30;99.90;;;;;;4934381;29;20489;-78
2020/12/04 17:23:31;;;;;;;21.27;19.23;;;5.20;99.90;;;;;;4934168;29;20450;-78
2020/12/04 17:25:57;;;;;;;26.13;21.17;;;5.20;99.90;;;;;;4934053;29;20457;-78
2020/12/04 17:28:24;;;;;;;20.23;18.30;;;5.20;99.90;;;;;;4934357;29;20931;-77
2020/12/04 17:30:50;;;;;;;24.23;21.93;;;5.10;99.90;;;;;;4934188;29;20881;-77
2020/12/04 17:33:16;;;;;;;23.07;20.67;;;5.10;99.90;;;;;;4934150;29;20453;-78
2020/12/04 17:35:43;;;;;;;24.77;22.40;;;5.10;99.90;;;;;;4934002;29;20479;-77
2020/12/04 17:38:09;;;;;;;25.50;21.80;;;5.00;99.90;;;;;;4934155;29;20450;-77
2020/12/04 17:40:35;;;;;;;30.40;22.43;;;5.10;99.90;;;;;;4934115;29;20935;-77
2020/12/04 17:43:03;;;;;;;26.17;21.20;;;5.20;99.90;;;;;;4934055;29;20453;-78
2020/12/04 17:45:29;;;;;;;25.97;23.20;;;5.40;99.90;;;;;;4933922;29;20449;-78
2020/12/04 17:47:55;;;;;;;25.93;23.33;;;5.50;99.90;;;;;;4933740;29;20457;-79
2020/12/04 17:50:22;;;;;;;25.23;22.40;;;5.50;99.90;;;;;;4933841;29;20846;-79
2020/12/04 17:52:49;;;;;;;25.77;23.27;;;5.40;99.90;;;;;;4933723;29;20448;-78
2020/12/04 17:55:15;;;;;;;26.23;23.20;;;5.30;99.90;;;;;;4933854;29;20458;-77
2020/12/04 17:57:41;;;;;;;24.40;21.97;;;5.30;99.90;;;;;;4933793;29;20475;-77
2020/12/04 18:00:08;;;;;;;26.90;24.20;;;5.20;99.90;;;;;;4933211;29;20465;-78
2020/12/04 18:02:35;;;;;;;26.53;23.73;;;5.10;99.90;;;;;;4933335;29;20489;-78
2020/12/04 18:05:01;;;;;;;28.30;25.30;;;5.10;99.90;;;;;;4933240;29;20470;-78
2020/12/04 18:07:27;;;;;;;26.80;22.43;;;5.20;99.90;;;;;;4932861;29;20457;-78
2020/12/04 18:09:54;;;;;;;26.80;22.80;;;5.20;99.90;;;;;;4933216;29;20513;-78
2020/12/04 18:12:21;;;;;;;28.27;25.67;;;5.30;99.90;;;;;;4932965;29;20484;-78
2020/12/04 18:14:47;;;;;;;28.07;24.83;;;5.30;99.90;;;;;;4933374;29;20947;-78
2020/12/04 18:17:13;;;;;;;27.00;24.07;;;5.30;99.90;;;;;;4933265;29;20548;-78
2020/12/04 18:19:40;;;;;;;30.37;23.50;;;5.20;99.90;;;;;;4932879;29;20445;-78
2020/12/04 18:22:08;;;;;;;24.57;22.03;;;5.00;99.90;;;;;;4933275;29;20489;-78
2020/12/04 18:24:34;;;;;;;29.43;26.40;;;5.10;99.90;;;;;;4933143;29;20449;-78
2020/12/04 18:27:01;;;;;;;28.83;24.33;;;5.10;99.90;;;;;;4933031;29;20962;-78
2020/12/04 18:29:28;;;;;;;26.63;23.77;;;4.90;99.90;;;;;;4934312;29;20452;-77
2020/12/04 18:31:54;;;;;;;29.33;26.20;;;4.90;99.90;;;;;;4936971;29;20966;-78